Houston, Texas
Traffic Map
Current Weather Conditions
Houston, Texas
Broken Clouds
Broken Clouds
79°
Feels Like: 82°
Wind Chill: 79° Ceiling: 16000
Heat Index: 82° Visibility: 10mi
Dew Point: 74° Wind: 7mph
Humidity: 84% Direction: 150° (SSE)
Pressure: 30.12in Gusts: 0mph
Raw Report DataKIAH 291453Z 15006KT 10SM FEW025 SCT120 BKN160 BKN200 BKN230 26/23 A3012 RMK AO2 SLP198 T02610233 51016
Traffic Incident Summary
Active as of:
Severity:
Category:
InformationThere was an issue retrieving the traffic information for this location. Please try a different location or try again shortly.
Advertisements
Track Severe Weather on mobile